Time;durP1;ratioP1;P1;durP2;ratioP2;P2;SDS_P1;SDS_P2;PMS_P1;PMS_P2;Temp;Humidity;BMP_temperature;BMP_pressure;BME280_temperature;BME280_humidity;BME280_pressure;Samples;Min_cycle;Max_cycle;Signal;HPM_P1;HPM_P2
2023/02/14 00:00:05;;;;;;;5.30;1.35;;;;;;;2.34;68.97;98629.22;5072612;28;20089;-49
2023/02/14 00:02:30;;;;;;;5.18;1.50;;;;;;;2.40;68.72;98629.66;5072313;28;20029;-51
2023/02/14 00:04:56;;;;;;;5.15;1.40;;;;;;;2.41;68.85;98634.00;5072688;28;20327;-52
2023/02/14 00:07:21;;;;;;;2.45;1.20;;;;;;;2.52;68.45;98643.00;5072968;28;20112;-49
2023/02/14 00:09:47;;;;;;;3.78;1.48;;;;;;;2.49;68.51;98641.41;5072559;28;20116;-54
2023/02/14 00:12:12;;;;;;;2.65;1.27;;;;;;;2.47;68.47;98639.81;5072595;28;20029;-52
2023/02/14 00:17:21;;;;;;;4.43;1.70;;;;;;;2.47;69.00;98642.47;5072627;28;20047;-54
2023/02/14 00:19:47;;;;;;;3.70;1.55;;;;;;;2.52;69.15;98645.66;5072701;28;20050;-58
2023/02/14 00:22:12;;;;;;;7.53;1.70;;;;;;;2.48;68.92;98646.81;5072341;28;20030;-52
2023/02/14 00:24:38;;;;;;;5.20;1.75;;;;;;;2.49;68.72;98651.13;5072438;28;20458;-50
2023/02/14 00:27:03;;;;;;;3.63;1.80;;;;;;;2.51;68.68;98643.94;5071730;28;20135;-54
2023/02/14 00:29:31;;;;;;;4.63;1.85;;;;;;;2.47;69.41;98639.81;5072459;28;20036;-49
2023/02/14 00:31:56;;;;;;;3.72;1.67;;;;;;;2.44;69.19;98647.00;5072015;28;20493;-48
2023/02/14 00:34:22;;;;;;;6.05;2.03;;;;;;;2.43;68.87;98653.25;5074606;28;20037;-49
2023/02/14 00:36:48;;;;;;;5.88;2.05;;;;;;;2.39;68.59;98633.22;5076527;28;20441;-50
2023/02/14 00:39:14;;;;;;;4.13;1.80;;;;;;;2.29;69.04;98618.94;5076371;28;20340;-49
2023/02/14 00:41:41;;;;;;;4.78;1.90;;;;;;;2.54;69.30;98656.97;5074978;28;20384;-46
2023/02/14 00:44:07;;;;;;;2.60;1.83;;;;;;;2.50;68.69;98651.03;5075903;28;20078;-50
2023/02/14 00:46:34;;;;;;;4.30;1.98;;;;;;;2.52;68.67;98661.50;5076280;28;20106;-49
2023/02/14 00:48:59;;;;;;;4.57;2.00;;;;;;;2.42;68.23;98651.56;5076076;28;20025;-47
2023/02/14 00:51:25;;;;;;;6.50;1.90;;;;;;;2.43;68.56;98666.44;5075898;28;20029;-48
2023/02/14 00:53:50;;;;;;;3.72;2.10;;;;;;;2.43;68.46;98669.09;5075710;28;20034;-51
2023/02/14 00:56:17;;;;;;;4.03;2.03;;;;;;;2.44;68.73;98668.16;5076250;28;20094;-51
2023/02/14 00:58:44;;;;;;;5.38;2.17;;;;;;;2.45;68.05;98653.13;5075426;28;20036;-48
2023/02/14 01:01:10;;;;;;;3.55;1.60;;;;;;;2.47;67.75;98660.97;5074732;28;20504;-50
2023/02/14 01:03:36;;;;;;;3.80;1.80;;;;;;;2.33;67.17;98630.19;5075488;28;20098;-48
2023/02/14 01:06:02;;;;;;;6.22;2.00;;;;;;;2.47;67.28;98659.16;5075190;28;20037;-52
2023/02/14 01:08:28;;;;;;;5.45;1.92;;;;;;;2.53;67.05;98666.69;5075529;28;20392;-49
2023/02/14 01:10:53;;;;;;;3.50;1.95;;;;;;;2.52;67.71;98658.84;5075365;28;20053;-46
2023/02/14 01:13:19;;;;;;;4.25;2.20;;;;;;;2.50;67.68;98653.66;5075602;28;20028;-48
2023/02/14 01:15:48;;;;;;;4.50;2.00;;;;;;;2.51;67.64;98660.63;5075457;28;20029;-49
2023/02/14 01:18:15;;;;;;;5.78;1.90;;;;;;;2.48;68.35;98676.69;5075205;28;20090;-49
2023/02/14 01:20:40;;;;;;;4.82;2.08;;;;;;;2.48;68.08;98676.69;5075416;28;20233;-46
2023/02/14 01:23:06;;;;;;;3.42;1.90;;;;;;;2.48;68.38;98670.56;5075061;28;20347;-48
2023/02/14 01:25:32;;;;;;;5.25;2.22;;;;;;;2.45;68.79;98687.47;5075097;28;20352;-47
2023/02/14 01:27:57;;;;;;;5.20;2.10;;;;;;;2.28;69.57;98670.09;5075284;28;20111;-45
2023/02/14 01:30:23;;;;;;;6.93;1.90;;;;;;;2.36;69.41;98688.91;5075083;28;20432;-47
2023/02/14 01:32:49;;;;;;;7.05;2.00;;;;;;;2.35;70.06;98692.50;5075144;28;20028;-48
2023/02/14 01:35:14;;;;;;;4.93;2.15;;;;;;;2.33;70.56;98690.94;5075200;28;20451;-50
2023/02/14 01:37:40;;;;;;;3.92;2.13;;;;;;;2.32;70.23;98687.41;5074864;28;20074;-49
2023/02/14 01:40:07;;;;;;;5.20;2.10;;;;;;;2.34;69.98;98689.97;5073812;28;20462;-47
2023/02/14 01:42:34;;;;;;;3.83;2.15;;;;;;;2.31;70.27;98691.00;5074903;28;20119;-46
2023/02/14 01:45:14;;;;;;;6.15;1.98;;;;;;;2.32;70.13;98697.16;5074559;28;20074;-47
2023/02/14 01:47:42;;;;;;;5.65;2.00;;;;;;;2.26;69.58;98690.47;5074611;28;20032;-47
2023/02/14 01:50:23;;;;;;;6.25;2.13;;;;;;;2.26;70.28;98691.28;5074664;28;20044;-46
2023/02/14 01:52:52;;;;;;;5.75;2.50;;;;;;;2.27;70.70;98697.44;5075372;28;20029;-46
2023/02/14 01:55:22;;;;;;;7.25;2.33;;;;;;;2.29;70.35;98703.47;5074131;28;20338;-46
2023/02/14 01:57:58;;;;;;;5.95;2.30;;;;;;;2.33;70.37;98706.78;5074886;28;20078;-48
2023/02/14 02:03:08;;;;;;;4.03;2.00;;;;;;;2.09;70.25;98671.25;5074946;28;20443;-47
2023/02/14 02:05:38;;;;;;;4.88;1.60;;;;;;;2.18;70.24;98701.53;5074330;28;20039;-48
2023/02/14 02:08:04;;;;;;;2.15;1.20;;;;;;;1.99;70.23;98707.13;5073336;28;20496;-48
2023/02/14 02:10:29;;;;;;;4.05;1.17;;;;;;;1.93;70.60;98707.50;5074745;28;20056;-47
2023/02/14 02:13:02;;;;;;;2.75;1.42;;;;;;;1.90;71.45;98707.69;5074481;28;20039;-48
2023/02/14 02:15:33;;;;;;;4.32;1.20;;;;;;;1.92;71.36;98721.63;5074415;28;20060;-46
2023/02/14 02:18:40;;;;;;;1.65;1.10;;;;;;;1.98;71.77;98716.00;5074055;28;20051;-50
2023/02/14 02:21:31;;;;;;;1.70;1.20;;;;;;;1.98;71.58;98729.19;5066290;28;20062;-48
2023/02/14 02:24:07;;;;;;;3.33;1.20;;;;;;;1.97;71.50;98723.06;5074284;28;20024;-46
2023/02/14 02:27:09;;;;;;;2.95;1.27;;;;;;;1.97;71.57;98723.06;5073873;28;20032;-48
2023/02/14 02:29:59;;;;;;;2.90;1.13;;;;;;;1.93;71.45;98723.34;5074032;28;20039;-50
2023/02/14 02:32:43;;;;;;;2.63;1.20;;;;;;;1.95;72.06;98716.19;5074168;28;20072;-56
2023/02/14 02:35:39;;;;;;;4.10;1.45;;;;;;;2.00;71.87;98722.88;5073749;28;20040;-48
2023/02/14 02:38:16;;;;;;;4.10;1.55;;;;;;;1.95;71.74;98718.84;5073486;28;20037;-47
2023/02/14 02:41:23;;;;;;;4.30;1.95;;;;;;;2.06;71.81;98723.44;5073811;28;20370;-49
2023/02/14 02:44:16;;;;;;;3.45;1.80;;;;;;;2.10;71.97;98712.56;5073481;28;20467;-49
2023/02/14 02:46:48;;;;;;;4.95;1.80;;;;;;;2.08;71.97;98719.75;5072918;28;20333;-48
2023/02/14 02:58:37;;;;;;;4.25;2.35;;;;;;;2.10;72.39;98719.66;5073514;28;20051;-46
2023/02/14 03:01:09;;;;;;;4.70;2.65;;;;;;;2.12;72.29;98721.25;5073065;28;20064;-47
2023/02/14 03:06:22;;;;;;;3.78;2.70;;;;;;;2.17;71.95;98718.31;5073463;28;20415;-46
2023/02/14 03:08:47;;;;;;;3.83;2.60;;;;;;;2.17;72.39;98720.09;5073147;28;20039;-50
2023/02/14 03:11:13;;;;;;;5.82;2.72;;;;;;;2.20;71.60;98725.19;5073206;28;20039;-48
2023/02/14 03:13:46;;;;;;;6.25;2.90;;;;;;;2.20;72.06;98714.63;5072989;28;20116;-47
2023/02/14 03:16:20;;;;;;;7.22;2.67;;;;;;;2.14;71.42;98715.88;5073286;28;20036;-49
2023/02/14 03:19:03;;;;;;;8.93;2.50;;;;;;;2.14;71.43;98724.63;5073041;28;20048;-51
2023/02/14 03:21:57;;;;;;;6.28;2.92;;;;;;;2.21;71.87;98719.81;5072818;28;20133;-46
2023/02/14 03:24:35;;;;;;;4.63;2.17;;;;;;;2.11;71.82;98702.88;5073830;28;20451;-46
2023/02/14 03:27:14;;;;;;;3.65;2.35;;;;;;;2.17;71.13;98722.72;5072847;28;20066;-48
2023/02/14 03:29:48;;;;;;;5.95;2.33;;;;;;;2.20;71.53;98720.75;5072822;28;20043;-50
2023/02/14 03:32:26;;;;;;;8.52;2.63;;;;;;;2.26;71.81;98727.44;5073129;28;20052;-50
2023/02/14 03:34:55;;;;;;;9.30;2.25;;;;;;;2.29;71.42;98724.59;5072797;28;20047;-48
2023/02/14 03:37:27;;;;;;;4.80;2.17;;;;;;;2.32;70.64;98736.78;5072507;28;20075;-52
2023/02/14 03:40:14;;;;;;;4.35;1.88;;;;;;;2.33;70.51;98728.72;5073232;28;20107;-47
2023/02/14 03:42:53;;;;;;;3.42;1.58;;;;;;;2.31;70.53;98730.63;5071549;28;20486;-47
2023/02/14 03:45:33;;;;;;;2.72;1.75;;;;;;;2.25;70.24;98721.28;5072624;28;20040;-47
2023/02/14 03:48:03;;;;;;;4.25;1.58;;;;;;;2.28;70.53;98736.94;5073382;28;20024;-50
2023/02/14 03:50:30;;;;;;;3.78;1.70;;;;;;;2.22;70.38;98725.94;5073072;28;20481;-52
2023/02/14 03:52:57;;;;;;;5.65;1.73;;;;;;;2.24;70.14;98738.09;5072860;28;20032;-50
2023/02/14 03:55:31;;;;;;;3.90;1.73;;;;;;;2.26;69.82;98761.78;5072903;28;20029;-47
2023/02/14 03:58:11;;;;;;;3.85;1.85;;;;;;;2.24;70.23;98761.88;5072349;28;20051;-50
2023/02/14 04:00:40;;;;;;;4.53;0.90;;;;;;;2.09;70.09;98753.13;5072722;28;20043;-49
2023/02/14 04:03:13;;;;;;;1.83;0.90;;;;;;;1.88;70.93;98760.59;5072395;28;20115;-51
2023/02/14 04:05:42;;;;;;;2.60;0.82;;;;;;;1.71;71.50;98751.09;5072582;28;20032;-47
2023/02/14 04:08:09;;;;;;;2.67;0.80;;;;;;;1.61;72.24;98755.22;5072934;28;20060;-51
2023/02/14 04:10:34;;;;;;;2.65;1.02;;;;;;;1.52;72.68;98770.66;5076631;28;20042;-51
2023/02/14 04:13:00;;;;;;;1.63;0.80;;;;;;;1.49;73.07;98762.09;5076948;28;20406;-50
2023/02/14 04:15:25;;;;;;;2.22;0.93;;;;;;;1.48;72.74;98765.66;5077100;28;20032;-51
2023/02/14 04:20:35;;;;;;;2.67;1.33;;;;;;;1.29;73.35;98774.66;5076520;28;20037;-50
2023/02/14 04:23:02;;;;;;;4.25;1.75;;;;;;;1.19;73.55;98777.00;5076401;28;20033;-55
2023/02/14 04:25:28;;;;;;;2.65;1.58;;;;;;;1.12;73.23;98783.56;5077006;28;20032;-50
2023/02/14 04:27:53;;;;;;;4.10;1.92;;;;;;;1.02;73.90;98782.44;5076647;28;20029;-49
2023/02/14 04:30:21;;;;;;;3.80;1.75;;;;;;;0.97;73.69;98780.91;5076250;28;20097;-50
2023/02/14 04:32:47;;;;;;;4.07;2.17;;;;;;;0.95;74.22;98784.56;5076222;28;20032;-50
2023/02/14 04:35:13;;;;;;;4.82;2.10;;;;;;;0.97;74.28;98780.91;5076424;28;20051;-49
2023/02/14 04:37:38;;;;;;;4.70;2.30;;;;;;;1.00;74.33;98780.72;5076214;28;20110;-47
2023/02/14 04:40:04;;;;;;;5.40;2.05;;;;;;;1.12;74.15;98791.50;5076452;28;20036;-50
2023/02/14 04:42:30;;;;;;;3.33;1.95;;;;;;;1.24;73.60;98803.97;5076258;28;20054;-49
2023/02/14 04:44:56;;;;;;;4.32;1.60;;;;;;;1.32;73.40;98797.38;5076010;28;20037;-49
2023/02/14 04:47:21;;;;;;;6.80;1.63;;;;;;;1.41;72.70;98800.31;5076339;28;20028;-51
2023/02/14 04:49:46;;;;;;;3.80;1.60;;;;;;;1.50;72.47;98806.84;5075772;28;20033;-53
2023/02/14 04:52:12;;;;;;;5.22;1.60;;;;;;;1.55;72.05;98807.41;5075677;28;20456;-48
2023/02/14 04:54:38;;;;;;;3.03;1.30;;;;;;;1.54;71.78;98797.81;5075781;28;20380;-53
2023/02/14 04:57:03;;;;;;;3.28;1.10;;;;;;;1.54;70.86;98799.56;5075682;28;20033;-53
2023/02/14 04:59:29;;;;;;;3.95;1.67;;;;;;;1.67;71.03;98823.44;5075857;28;20121;-50
2023/02/14 05:01:54;;;;;;;3.35;1.63;;;;;;;1.71;70.54;98820.53;5075525;28;20186;-50
2023/02/14 05:04:20;;;;;;;6.63;1.80;;;;;;;1.79;70.63;98822.72;5075735;28;20035;-50
2023/02/14 05:06:46;;;;;;;4.70;1.40;;;;;;;1.86;69.85;98824.03;5075528;28;20103;-48
2023/02/14 05:09:11;;;;;;;3.83;1.00;;;;;;;1.82;69.14;98827.81;5075399;28;20056;-46
2023/02/14 05:11:37;;;;;;;3.33;0.98;;;;;;;1.84;69.37;98828.56;5075835;28;20086;-47
2023/02/14 05:14:02;;;;;;;7.07;1.58;;;;;;;1.69;69.15;98814.50;5075703;28;20086;-50
2023/02/14 05:16:28;;;;;;;8.30;1.23;;;;;;;1.84;68.87;98849.66;5075292;28;20028;-52
2023/02/14 05:18:53;;;;;;;6.07;1.60;;;;;;;1.90;69.01;98855.50;5075729;28;20603;-51
2023/02/14 05:21:18;;;;;;;5.80;1.45;;;;;;;1.94;69.06;98846.50;5074224;28;20056;-52
2023/02/14 05:23:44;;;;;;;5.80;1.40;;;;;;;1.94;69.58;98841.22;5075067;28;20113;-50
2023/02/14 05:26:10;;;;;;;3.92;1.45;;;;;;;2.00;68.55;98851.41;5075495;28;20036;-48
2023/02/14 05:28:35;;;;;;;5.20;1.45;;;;;;;1.84;69.18;98823.28;5075325;28;20112;-48
2023/02/14 05:31:01;;;;;;;3.83;1.10;;;;;;;2.03;68.84;98848.56;5075101;28;20037;-49
2023/02/14 05:33:26;;;;;;;4.38;1.00;;;;;;;2.06;68.74;98864.22;5075055;28;20024;-50
2023/02/14 05:35:52;;;;;;;8.80;1.23;;;;;;;2.03;67.99;98848.56;5075361;28;20029;-52
2023/02/14 05:38:18;;;;;;;5.28;1.30;;;;;;;2.06;68.27;98852.81;5074951;28;20097;-46
2023/02/14 05:40:43;;;;;;;3.33;1.05;;;;;;;2.09;68.57;98856.09;5074894;28;20064;-50
2023/02/14 05:43:09;;;;;;;3.40;1.23;;;;;;;2.13;68.58;98857.59;5074937;28;20043;-47
2023/02/14 05:45:35;;;;;;;2.25;1.00;;;;;;;2.20;68.46;98841.41;5075053;28;20042;-50
2023/02/14 05:48:01;;;;;;;2.90;1.17;;;;;;;2.27;68.48;98850.63;5074803;28;20115;-51
2023/02/14 05:50:27;;;;;;;3.35;1.25;;;;;;;2.27;67.73;98858.56;5074783;28;20037;-47
2023/02/14 05:52:53;;;;;;;5.15;1.40;;;;;;;2.34;67.87;98859.88;5074983;28;20044;-47
2023/02/14 05:55:19;;;;;;;3.28;1.33;;;;;;;2.36;67.43;98852.69;5074791;28;20064;-46
2023/02/14 05:57:44;;;;;;;3.47;1.05;;;;;;;2.43;67.36;98859.31;5074459;28;20078;-50
2023/02/14 06:00:10;;;;;;;3.00;1.27;;;;;;;2.41;67.83;98848.00;5074384;28;20093;-52
2023/02/14 06:02:36;;;;;;;4.40;1.20;;;;;;;2.47;67.27;98859.13;5075081;28;20036;-50
2023/02/14 06:05:01;;;;;;;4.78;1.58;;;;;;;2.43;67.98;98834.66;5074627;28;20037;-47
2023/02/14 06:07:29;;;;;;;3.47;1.60;;;;;;;2.64;67.99;98855.41;5074113;28;20040;-48
2023/02/14 06:09:55;;;;;;;3.60;1.38;;;;;;;2.72;67.68;98853.09;5074098;28;20024;-51
2023/02/14 06:12:20;;;;;;;3.33;1.35;;;;;;;2.82;67.89;98858.66;5074613;28;20481;-51
2023/02/14 06:14:46;;;;;;;6.25;1.70;;;;;;;2.91;68.04;98859.88;5074436;28;20115;-49
2023/02/14 06:17:11;;;;;;;6.57;1.60;;;;;;;2.91;67.67;98858.09;5074193;28;20121;-50
2023/02/14 06:19:37;;;;;;;5.05;1.80;;;;;;;2.93;68.56;98861.47;5074265;28;20025;-50
2023/02/14 06:22:03;;;;;;;3.92;2.10;;;;;;;2.91;67.91;98863.38;5074337;28;20115;-48
2023/02/14 06:24:28;;;;;;;4.50;1.90;;;;;;;2.90;68.47;98872.25;5074315;28;20353;-49
2023/02/14 06:26:54;;;;;;;5.40;2.10;;;;;;;2.87;69.04;98870.63;5073928;28;20165;-49
2023/02/14 06:29:19;;;;;;;5.78;1.92;;;;;;;2.82;68.88;98866.59;5073674;28;20115;-47
2023/02/14 06:31:45;;;;;;;6.15;3.08;;;;;;;2.77;69.73;98873.97;5073902;28;20104;-50
2023/02/14 06:34:10;;;;;;;5.57;2.40;;;;;;;2.69;69.35;98864.75;5074184;28;20083;-49
2023/02/14 06:36:36;;;;;;;6.03;2.10;;;;;;;2.69;69.63;98877.97;5073654;28;20037;-47
2023/02/14 06:39:03;;;;;;;7.40;2.42;;;;;;;2.68;69.99;98885.97;5073533;28;20020;-47
2023/02/14 06:41:28;;;;;;;9.23;2.40;;;;;;;2.71;70.70;98883.13;5073896;28;20039;-50
2023/02/14 06:43:54;;;;;;;5.43;2.20;;;;;;;2.76;70.23;98867.00;5073263;28;20219;-49
2023/02/14 06:46:19;;;;;;;6.80;2.25;;;;;;;2.81;70.27;98876.31;5073688;28;20040;-49
2023/02/14 06:48:45;;;;;;;6.20;2.65;;;;;;;2.92;70.27;98883.56;5073714;28;20035;-54
2023/02/14 06:51:11;;;;;;;7.72;2.20;;;;;;;2.94;69.84;98884.31;5073078;28;20040;-49
2023/02/14 06:53:36;;;;;;;3.92;1.80;;;;;;;2.92;70.06;98890.66;5073679;28;20055;-50
2023/02/14 06:56:02;;;;;;;3.60;2.13;;;;;;;2.89;69.72;98883.75;5073102;28;20029;-51
2023/02/14 06:58:28;;;;;;;6.30;1.83;;;;;;;2.82;69.32;98906.25;5073206;28;20066;-48
2023/02/14 07:00:55;;;;;;;5.10;1.73;;;;;;;2.77;69.69;98908.34;5073172;28;20040;-52
2023/02/14 07:03:20;;;;;;;5.65;1.90;;;;;;;2.72;70.07;98905.97;5073337;28;20024;-49
2023/02/14 07:05:46;;;;;;;4.47;1.80;;;;;;;2.77;69.81;98906.53;5072996;28;20039;-49
2023/02/14 07:08:11;;;;;;;3.38;1.60;;;;;;;2.87;70.44;98909.44;5073357;28;20024;-50
2023/02/14 07:10:37;;;;;;;23.85;9.93;;;;;;;2.99;70.31;98908.66;5073254;28;20037;-48
2023/02/14 07:13:03;;;;;;;32.75;14.43;;;;;;;3.20;70.67;98910.88;5072916;28;20040;-48
2023/02/14 07:15:28;;;;;;;8.65;3.97;;;;;;;3.47;68.92;98909.16;5073100;28;20069;-48
2023/02/14 07:17:54;;;;;;;14.07;6.85;;;;;;;3.68;67.66;98917.50;5072844;28;20607;-49
2023/02/14 07:20:19;;;;;;;23.75;9.57;;;;;;;3.75;67.79;98916.13;5072738;28;20025;-48
2023/02/14 07:22:45;;;;;;;10.27;4.47;;;;;;;3.76;67.56;98909.88;5073410;28;20031;-48
2023/02/14 07:25:11;;;;;;;11.50;3.53;;;;;;;3.81;67.66;98922.81;5072936;28;20111;-50
2023/02/14 07:27:37;;;;;;;10.10;5.25;;;;;;;3.78;67.97;98913.25;5072767;28;20056;-49
2023/02/14 07:30:04;;;;;;;7.25;3.90;;;;;;;3.88;68.01;98926.72;5072839;28;20028;-51
2023/02/14 07:32:30;;;;;;;7.00;3.45;;;;;;;3.82;67.00;98922.69;5072662;28;20438;-52
2023/02/14 07:34:56;;;;;;;13.13;4.22;;;;;;;3.84;67.08;98930.53;5072261;28;20086;-49
2023/02/14 07:37:22;;;;;;;12.30;4.90;;;;;;;3.95;67.31;98927.16;5072790;28;20435;-48
2023/02/14 07:39:47;;;;;;;8.57;3.30;;;;;;;4.10;66.53;98936.75;5073210;28;20090;-48
2023/02/14 07:42:13;;;;;;;7.60;2.65;;;;;;;4.02;65.55;98925.78;5072327;28;20086;-54
2023/02/14 07:44:39;;;;;;;2.70;1.73;;;;;;;4.07;65.93;98944.03;5072324;28;20462;-52
2023/02/14 07:47:06;;;;;;;8.55;2.38;;;;;;;4.15;64.71;98947.84;5072983;28;20119;-49
2023/02/14 07:49:32;;;;;;;3.90;1.90;;;;;;;4.21;63.94;98943.91;5072936;28;20125;-46
2023/02/14 07:51:58;;;;;;;7.72;2.10;;;;;;;4.28;63.00;98957.59;5072489;28;20032;-48
2023/02/14 07:54:23;;;;;;;2.83;1.27;;;;;;;4.34;63.18;98949.25;5072293;28;20099;-50
2023/02/14 07:56:49;;;;;;;3.40;1.63;;;;;;;4.38;62.31;98944.56;5072763;28;20359;-50
2023/02/14 07:59:14;;;;;;;4.90;1.50;;;;;;;4.34;62.47;98959.00;5072786;28;20064;-51
2023/02/14 08:01:40;;;;;;;6.07;2.15;;;;;;;4.23;61.47;98954.44;5072790;28;20024;-50
2023/02/14 08:04:06;;;;;;;4.47;2.08;;;;;;;4.20;63.01;98949.34;5072273;28;20046;-49
2023/02/14 08:06:31;;;;;;;4.75;1.88;;;;;;;4.36;62.93;98952.66;5072673;28;20116;-50
2023/02/14 08:08:56;;;;;;;3.15;1.83;;;;;;;4.61;62.41;98966.84;5072858;28;20090;-47
2023/02/14 08:14:06;;;;;;;7.10;2.90;;;;;;;4.91;60.50;98962.97;5072338;28;20140;-50
2023/02/14 08:16:33;;;;;;;6.13;3.47;;;;;;;5.00;60.59;98962.31;5072560;28;20093;-48
2023/02/14 08:18:59;;;;;;;2.28;1.80;;;;;;;5.08;59.54;98968.91;5072712;28;20032;-52
2023/02/14 08:21:26;;;;;;;2.10;1.65;;;;;;;4.97;59.84;98970.50;5072520;28;20097;-49
2023/02/14 08:23:52;;;;;;;4.05;1.50;;;;;;;4.78;60.49;98975.41;5072201;28;20035;-54
2023/02/14 08:26:17;;;;;;;2.28;1.60;;;;;;;4.49;62.20;98979.16;5072439;28;20033;-50
2023/02/14 08:28:43;;;;;;;5.53;1.55;;;;;;;4.21;63.35;98983.66;5072868;28;20443;-49
2023/02/14 08:31:09;;;;;;;6.93;1.42;;;;;;;3.95;63.78;98988.09;5072192;28;20049;-54
2023/02/14 08:33:34;;;;;;;4.80;1.48;;;;;;;3.75;64.98;98992.91;5072102;28;20094;-49
2023/02/14 08:36:01;;;;;;;4.25;1.70;;;;;;;3.71;65.81;98992.25;5072442;28;20051;-49
2023/02/14 08:38:27;;;;;;;3.50;1.42;;;;;;;3.67;65.54;99000.50;5072440;28;20041;-48
2023/02/14 08:40:52;;;;;;;2.20;1.20;;;;;;;3.53;65.21;98989.00;5072009;28;20024;-49
2023/02/14 08:43:18;;;;;;;3.67;1.45;;;;;;;3.55;65.46;99015.38;5072016;28;20048;-52
2023/02/14 08:45:43;;;;;;;3.97;1.42;;;;;;;3.49;64.78;99005.16;5071916;28;20032;-58
2023/02/14 08:48:10;;;;;;;2.92;1.77;;;;;;;3.61;65.70;99008.81;5072010;28;20032;-51
2023/02/14 08:50:37;;;;;;;4.25;1.90;;;;;;;3.76;64.63;99015.78;5072067;28;20470;-51
2023/02/14 08:53:08;;;;;;;5.57;1.70;;;;;;;3.92;64.33;99035.97;5071926;28;20028;-48
2023/02/14 08:55:34;;;;;;;4.35;1.63;;;;;;;3.94;63.38;99032.25;5074310;28;20036;-50
2023/02/14 08:58:00;;;;;;;3.17;1.52;;;;;;;3.99;62.56;99032.81;5075716;28;20036;-50
2023/02/14 09:00:26;;;;;;;4.72;1.58;;;;;;;4.10;61.95;99040.06;5074578;28;20028;-50
2023/02/14 09:02:52;;;;;;;3.92;1.77;;;;;;;4.19;62.05;99037.72;5075786;28;20033;-50
2023/02/14 09:05:19;;;;;;;3.50;1.65;;;;;;;4.37;62.06;99039.16;5075447;28;20028;-50
2023/02/14 09:07:44;;;;;;;5.60;1.80;;;;;;;4.72;61.00;99038.53;5075586;28;20116;-52
2023/02/14 09:10:10;;;;;;;4.90;1.70;;;;;;;5.09;59.32;99043.06;5075893;28;20111;-49
2023/02/14 09:12:39;;;;;;;3.90;1.88;;;;;;;5.45;58.51;99044.06;5075217;28;20029;-50
2023/02/14 09:15:05;;;;;;;9.35;2.67;;;;;;;5.79;57.40;99045.22;5075145;28;20032;-47
2023/02/14 09:17:31;;;;;;;3.15;2.00;;;;;;;6.02;56.19;99046.19;5075311;28;20035;-51
2023/02/14 09:19:56;;;;;;;4.25;2.10;;;;;;;6.04;55.83;99057.59;5075161;28;20422;-53
2023/02/14 09:22:22;;;;;;;4.22;2.00;;;;;;;6.03;55.69;99051.41;5074980;28;20078;-48
2023/02/14 09:24:47;;;;;;;3.65;1.88;;;;;;;5.79;55.83;99055.84;5075707;28;20044;-49
2023/02/14 09:27:12;;;;;;;5.82;1.77;;;;;;;5.51;55.87;99053.38;5075340;28;20039;-50
2023/02/14 09:29:38;;;;;;;2.80;1.60;;;;;;;5.28;56.12;99060.34;5075143;28;20035;-49
2023/02/14 09:32:03;;;;;;;4.65;2.00;;;;;;;5.20;56.69;99068.84;5074876;28;20523;-50
2023/02/14 09:39:58;;;;;;;4.13;2.00;;;;;;;5.21;56.46;99077.66;5074665;28;20392;-48
2023/02/14 09:42:48;;;;;;;4.90;1.65;;;;;;;5.31;57.29;99063.63;5074850;28;20134;-48
2023/02/14 09:45:19;;;;;;;4.30;1.92;;;;;;;5.21;56.63;99088.28;5075074;28;20040;-48
2023/02/14 09:48:13;;;;;;;5.22;2.10;;;;;;;5.38;56.97;99089.75;5074855;28;20051;-52
2023/02/14 09:50:46;;;;;;;7.88;2.15;;;;;;;5.40;56.27;99091.31;5074459;28;20094;-47
2023/02/14 09:53:14;;;;;;;7.22;2.20;;;;;;;5.33;56.64;99098.03;5075097;28;20037;-53
2023/02/14 09:55:53;;;;;;;4.85;1.80;;;;;;;5.14;56.63;99101.13;5074831;28;20121;-51
2023/02/14 09:58:28;;;;;;;6.28;1.90;;;;;;;5.00;57.65;99100.25;5074565;28;20086;-51
2023/02/14 10:01:14;;;;;;;1.98;1.40;;;;;;;5.10;57.76;99105.78;5074603;28;20040;-50
2023/02/14 10:04:14;;;;;;;2.65;1.42;;;;;;;5.20;57.31;99110.47;5074455;28;20124;-49
2023/02/14 10:07:17;;;;;;;2.50;1.52;;;;;;;5.26;57.35;99118.81;5073769;28;20025;-48
2023/02/14 10:09:57;;;;;;;3.78;1.70;;;;;;;5.32;56.04;99117.56;5074380;28;20028;-51
2023/02/14 10:12:31;;;;;;;3.63;1.88;;;;;;;5.19;55.85;99122.88;5074547;28;20119;-52
2023/02/14 10:15:00;;;;;;;2.67;1.40;;;;;;;4.96;55.51;99125.31;5074362;28;20347;-49
2023/02/14 10:17:40;;;;;;;3.13;1.63;;;;;;;4.79;56.08;99129.13;5073588;28;20036;-50
2023/02/14 10:20:23;;;;;;;4.22;1.67;;;;;;;4.59;56.22;99133.97;5073648;28;20039;-50
2023/02/14 10:23:28;;;;;;;3.78;1.60;;;;;;;4.43;56.20;99136.78;5074333;28;20351;-54
2023/02/14 10:26:06;;;;;;;4.20;1.67;;;;;;;4.21;56.77;99152.41;5072309;28;20045;-51
2023/02/14 10:28:36;;;;;;;2.60;1.27;;;;;;;3.99;57.38;99162.59;5073368;28;20032;-51
2023/02/14 10:31:21;;;;;;;2.92;1.58;;;;;;;3.98;57.84;99160.91;5073950;28;20028;-50
2023/02/14 10:33:56;;;;;;;2.10;1.40;;;;;;;4.04;57.93;99167.59;5074325;28;20033;-54
2023/02/14 10:36:55;;;;;;;3.50;1.83;;;;;;;4.10;57.47;99187.53;5073609;28;20040;-55
2023/02/14 10:39:26;;;;;;;3.10;1.70;;;;;;;4.08;57.38;99168.25;5073791;28;20044;-55
2023/02/14 10:42:29;;;;;;;2.58;1.48;;;;;;;4.31;56.74;99172.03;5073998;28;20043;-55
2023/02/14 10:45:25;;;;;;;2.35;1.65;;;;;;;4.49;56.10;99170.00;5073577;28;20054;-55
2023/02/14 10:48:12;;;;;;;3.38;1.60;;;;;;;4.60;56.33;99166.66;5073494;28;20402;-51
2023/02/14 10:50:49;;;;;;;3.95;1.90;;;;;;;4.65;55.71;99167.19;5073461;28;20059;-53
2023/02/14 10:53:43;;;;;;;4.13;1.95;;;;;;;4.68;55.58;99174.94;5073288;28;20037;-52
2023/02/14 10:56:25;;;;;;;4.22;2.30;;;;;;;4.71;54.48;99177.38;5064641;28;20416;-53
2023/02/14 10:58:54;;;;;;;4.45;1.83;;;;;;;4.62;54.42;99190.38;5073545;28;20028;-51
2023/02/14 11:01:20;;;;;;;7.18;2.47;;;;;;;4.48;55.46;99184.22;5073353;28;20116;-50
2023/02/14 11:03:53;;;;;;;3.72;1.60;;;;;;;4.47;55.07;99185.16;5072882;28;20028;-49
2023/02/14 11:06:19;;;;;;;3.30;1.80;;;;;;;4.33;56.04;99194.00;5073334;28;20047;-50
2023/02/14 11:08:44;;;;;;;6.28;1.60;;;;;;;4.16;55.66;99209.19;5073046;28;20032;-48
2023/02/14 11:11:17;;;;;;;4.60;1.38;;;;;;;4.20;56.06;99206.34;5072916;28;20028;-48
2023/02/14 11:13:43;;;;;;;2.17;1.48;;;;;;;4.14;56.41;99210.22;5073434;28;20032;-52
2023/02/14 11:16:11;;;;;;;2.85;1.50;;;;;;;4.16;56.22;99219.81;5071849;28;20032;-49
2023/02/14 11:18:39;;;;;;;3.97;1.67;;;;;;;4.11;56.40;99213.94;5071864;28;20111;-54
2023/02/14 11:21:16;;;;;;;3.83;1.63;;;;;;;4.10;56.22;99224.63;5073091;28;20032;-49
2023/02/14 11:23:49;;;;;;;4.78;2.00;;;;;;;3.98;55.12;99224.47;5072785;28;20401;-49
2023/02/14 11:26:24;;;;;;;1.98;1.30;;;;;;;3.89;55.34;99219.72;5072567;28;20048;-52
2023/02/14 11:28:56;;;;;;;2.00;1.07;;;;;;;3.66;55.23;99232.59;5072918;28;20024;-54
2023/02/14 11:31:33;;;;;;;1.77;0.80;;;;;;;3.55;54.94;99229.78;5073279;28;20463;-52
2023/02/14 11:34:00;;;;;;;1.95;1.20;;;;;;;3.49;55.67;99236.28;5072847;28;20028;-51
2023/02/14 11:36:28;;;;;;;2.70;1.38;;;;;;;3.56;55.47;99234.13;5071849;28;20401;-58
2023/02/14 11:39:00;;;;;;;4.25;1.58;;;;;;;3.70;55.18;99236.75;5073420;28;20032;-49
2023/02/14 11:41:25;;;;;;;2.63;1.52;;;;;;;3.81;54.51;99230.81;5072832;28;20036;-60
2023/02/14 11:43:52;;;;;;;2.75;1.52;;;;;;;3.90;54.83;99245.28;5072591;28;20102;-50
2023/02/14 11:46:20;;;;;;;5.63;1.38;;;;;;;3.85;54.18;99234.13;5072897;28;20041;-52
2023/02/14 11:49:05;;;;;;;2.25;1.13;;;;;;;3.84;55.15;99227.97;5073056;28;20045;-48
2023/02/14 11:51:39;;;;;;;2.63;1.50;;;;;;;3.82;55.22;99244.91;5071909;28;20035;-50
2023/02/14 11:54:05;;;;;;;3.28;1.52;;;;;;;3.61;54.74;99244.41;5072394;28;20112;-50
2023/02/14 11:56:47;;;;;;;2.75;1.20;;;;;;;3.58;55.59;99254.25;5072579;28;20362;-50
2023/02/14 11:59:29;;;;;;;2.00;1.00;;;;;;;3.53;55.58;99260.78;5073007;28;20028;-49
2023/02/14 12:01:59;;;;;;;2.97;1.20;;;;;;;3.41;55.26;99252.63;5072642;28;20352;-52
2023/02/14 12:04:38;;;;;;;3.28;1.40;;;;;;;3.48;55.13;99266.34;5072602;28;20028;-51
2023/02/14 12:07:21;;;;;;;4.05;1.77;;;;;;;3.57;56.01;99262.31;5072578;28;20028;-49
2023/02/14 12:10:03;;;;;;;2.47;1.02;;;;;;;3.58;55.02;99269.28;5072856;28;20044;-50
2023/02/14 12:12:29;;;;;;;2.08;1.30;;;;;;;3.47;54.79;99251.41;5072369;28;20036;-48
2023/02/14 12:15:21;;;;;;;1.77;1.08;;;;;;;3.70;54.62;99275.63;5072666;28;20041;-48
2023/02/14 12:17:52;;;;;;;2.55;1.45;;;;;;;3.76;55.06;99283.19;5072652;28;20029;-49
2023/02/14 12:20:43;;;;;;;2.35;1.17;;;;;;;3.92;55.02;99279.63;5072628;28;20036;-49
2023/02/14 12:23:26;;;;;;;2.67;1.40;;;;;;;3.78;55.28;99281.31;5072202;28;20366;-50